createdAt,value
2022-10-16T00:02:01.444Z,10.75
2022-10-16T00:04:28.604Z,12.07
2022-10-16T00:06:55.886Z,11.10
2022-10-16T00:09:23.113Z,12.30
2022-10-16T00:11:50.598Z,12.25
2022-10-16T00:14:17.782Z,14.60
2022-10-16T00:16:45.052Z,14.63
2022-10-16T00:19:13.377Z,14.95
2022-10-16T00:21:40.499Z,16.20
2022-10-16T00:24:09.772Z,13.82
2022-10-16T00:26:37.313Z,12.43
2022-10-16T00:29:04.582Z,11.68
2022-10-16T00:31:31.971Z,12.10
2022-10-16T00:33:59.153Z,14.93
2022-10-16T00:36:27.733Z,13.55
2022-10-16T00:38:56.525Z,12.63
2022-10-16T00:41:24.642Z,14.35
2022-10-16T00:43:51.732Z,14.50
2022-10-16T00:46:18.882Z,13.95
2022-10-16T00:48:48.265Z,15.27
2022-10-16T00:51:15.673Z,12.90
2022-10-16T00:53:42.978Z,13.93
2022-10-16T00:56:10.111Z,14.98
2022-10-16T00:58:37.393Z,15.90
2022-10-16T01:01:04.647Z,12.57
2022-10-16T01:03:34.209Z,14.82
2022-10-16T01:09:15.381Z,16.25
2022-10-16T01:11:45.969Z,15.30
2022-10-16T01:14:28.870Z,15.82
2022-10-16T01:17:14.826Z,18.67
2022-10-16T01:20:02.471Z,19.48
2022-10-16T01:22:35.112Z,20.65
2022-10-16T01:25:07.101Z,17.88
2022-10-16T01:27:37.812Z,17.20
2022-10-16T01:30:27.275Z,19.17
2022-10-16T01:33:11.836Z,19.17
2022-10-16T01:35:40.513Z,20.85
2022-10-16T01:38:19.502Z,20.67
2022-10-16T01:40:48.529Z,20.48
2022-10-16T01:43:28.923Z,21.85
2022-10-16T01:45:56.564Z,21.83
2022-10-16T01:48:24.954Z,17.45
2022-10-16T01:51:12.381Z,22.50
2022-10-16T01:53:40.686Z,20.58
2022-10-16T01:56:11.395Z,23.88
2022-10-16T01:58:42.066Z,23.88
2022-10-16T02:01:11.424Z,18.40
2022-10-16T02:03:39.622Z,16.58
2022-10-16T02:06:06.999Z,17.10
2022-10-16T02:08:34.730Z,14.70
2022-10-16T02:11:02.614Z,11.60
2022-10-16T02:13:33.527Z,15.55
2022-10-16T02:16:01.029Z,13.52
2022-10-16T02:18:31.830Z,16.98
2022-10-16T02:21:06.482Z,13.02
2022-10-16T02:23:57.640Z,18.00
2022-10-16T02:26:33.358Z,14.93
2022-10-16T02:29:05.568Z,14.13
2022-10-16T02:31:35.241Z,14.75
2022-10-16T02:34:03.650Z,16.05
2022-10-16T02:36:31.161Z,12.52
2022-10-16T02:39:00.258Z,15.35
2022-10-16T02:41:27.936Z,14.88
2022-10-16T02:43:56.046Z,14.40
2022-10-16T02:46:23.322Z,12.10
2022-10-16T02:48:50.446Z,13.38
2022-10-16T02:51:17.605Z,12.55
2022-10-16T02:53:44.870Z,14.63
2022-10-16T02:56:12.078Z,14.05
2022-10-16T02:58:39.247Z,14.98
2022-10-16T03:01:06.536Z,16.15
2022-10-16T03:03:33.694Z,19.40
2022-10-16T03:06:00.820Z,13.85
2022-10-16T03:08:28.033Z,14.25
2022-10-16T03:10:55.176Z,14.05
2022-10-16T03:13:22.382Z,17.48
2022-10-16T03:15:49.708Z,14.85
2022-10-16T03:18:16.860Z,18.48
2022-10-16T03:20:47.082Z,18.27
2022-10-16T03:23:14.373Z,15.88
2022-10-16T03:25:41.678Z,18.40
2022-10-16T03:28:09.310Z,19.50
2022-10-16T03:30:36.510Z,23.55
2022-10-16T03:33:03.642Z,17.88
2022-10-16T03:35:30.884Z,19.15
2022-10-16T03:37:58.220Z,17.98
2022-10-16T03:40:25.390Z,17.27
2022-10-16T03:42:52.585Z,18.38
2022-10-16T03:45:19.778Z,18.35
2022-10-16T03:47:46.967Z,15.68
2022-10-16T03:50:14.095Z,19.05
2022-10-16T03:52:41.358Z,16.60
2022-10-16T03:55:08.759Z,18.60
2022-10-16T03:57:35.876Z,17.27
2022-10-16T04:00:03.185Z,17.17
2022-10-16T04:02:30.296Z,21.27
2022-10-16T04:04:57.420Z,18.73
2022-10-16T04:07:24.924Z,17.17
2022-10-16T04:09:53.158Z,20.25
2022-10-16T04:12:20.308Z,18.67
2022-10-16T04:14:47.538Z,20.98
2022-10-16T04:17:14.703Z,17.02
2022-10-16T04:19:41.815Z,23.20
2022-10-16T04:22:09.083Z,18.48
2022-10-16T04:24:36.516Z,15.73
2022-10-16T04:27:03.648Z,16.52
2022-10-16T04:29:30.906Z,17.80
2022-10-16T04:31:58.038Z,21.05
2022-10-16T04:34:25.204Z,20.15
2022-10-16T04:36:52.399Z,18.90
2022-10-16T04:39:19.524Z,16.80
2022-10-16T04:41:46.643Z,16.98
2022-10-16T04:44:13.894Z,16.45
2022-10-16T04:46:41.001Z,17.33
2022-10-16T04:49:08.113Z,17.42
2022-10-16T04:51:35.300Z,17.23
2022-10-16T04:54:02.438Z,14.05
2022-10-16T04:56:29.609Z,16.50
2022-10-16T04:58:56.808Z,13.15
2022-10-16T05:01:23.946Z,16.10
2022-10-16T05:03:51.051Z,12.52
2022-10-16T05:06:18.261Z,14.68
2022-10-16T05:08:45.410Z,15.85
2022-10-16T05:11:12.539Z,16.10
2022-10-16T05:13:39.803Z,13.90
2022-10-16T05:16:07.163Z,13.20
2022-10-16T05:18:34.298Z,13.80
2022-10-16T05:21:01.478Z,14.70
2022-10-16T05:23:28.588Z,15.95
2022-10-16T05:25:56.647Z,15.25
2022-10-16T05:28:23.906Z,14.40
2022-10-16T05:30:51.062Z,18.08
2022-10-16T05:33:18.199Z,14.45
2022-10-16T05:35:46.165Z,15.98
2022-10-16T05:38:13.263Z,16.13
2022-10-16T05:40:40.527Z,15.82
2022-10-16T05:43:07.682Z,13.30
2022-10-16T05:45:34.907Z,14.77
2022-10-16T05:48:02.359Z,13.73
2022-10-16T05:50:29.562Z,14.75
2022-10-16T05:52:56.855Z,16.70
2022-10-16T05:55:24.024Z,15.55
2022-10-16T05:57:51.202Z,14.00
2022-10-16T06:00:18.448Z,18.02
2022-10-16T06:02:45.611Z,14.93
2022-10-16T06:05:12.800Z,15.32
2022-10-16T06:07:39.918Z,17.52
2022-10-16T06:10:07.582Z,15.20
2022-10-16T06:12:34.748Z,15.23
2022-10-16T06:15:01.881Z,15.98
2022-10-16T06:17:29.346Z,21.42
2022-10-16T06:19:56.718Z,17.20
2022-10-16T06:22:23.911Z,15.38
2022-10-16T06:24:51.102Z,15.70
2022-10-16T06:27:18.358Z,16.08
2022-10-16T06:29:46.116Z,16.08
2022-10-16T06:32:13.237Z,18.17
2022-10-16T06:34:44.145Z,18.90
2022-10-16T06:37:11.401Z,19.42
2022-10-16T06:39:38.502Z,17.63
2022-10-16T06:42:05.855Z,17.98
2022-10-16T06:44:32.960Z,18.67
2022-10-16T06:47:00.103Z,19.25
2022-10-16T06:49:27.346Z,18.20
2022-10-16T06:51:54.488Z,15.82
2022-10-16T06:54:21.661Z,21.30
2022-10-16T06:56:48.851Z,20.38
2022-10-16T06:59:16.045Z,16.88
2022-10-16T07:01:43.168Z,22.27
2022-10-16T07:04:10.366Z,22.02
2022-10-16T07:06:37.494Z,19.23
2022-10-16T07:09:06.105Z,22.70
2022-10-16T07:11:33.732Z,20.20
2022-10-16T07:14:00.856Z,22.02
2022-10-16T07:16:29.204Z,22.50
2022-10-16T07:19:00.304Z,21.98
2022-10-16T07:21:29.884Z,20.38
2022-10-16T07:24:04.154Z,21.30
2022-10-16T07:26:32.233Z,19.83
2022-10-16T07:28:59.737Z,27.27
2022-10-16T07:31:27.142Z,20.88
2022-10-16T07:33:54.566Z,22.77
2022-10-16T07:36:22.461Z,18.05
2022-10-16T07:38:51.861Z,24.52
2022-10-16T07:41:21.449Z,19.25
2022-10-16T07:43:52.770Z,23.27
2022-10-16T07:46:21.149Z,24.63
2022-10-16T07:48:49.078Z,20.30
2022-10-16T07:51:17.630Z,21.80
2022-10-16T07:53:44.737Z,17.80
2022-10-16T07:56:12.746Z,21.52
2022-10-16T07:58:40.184Z,19.98
2022-10-16T08:01:08.584Z,19.92
2022-10-16T08:03:35.922Z,19.52
2022-10-16T08:06:03.506Z,17.88
2022-10-16T08:08:30.739Z,16.63
2022-10-16T08:10:58.155Z,17.90
2022-10-16T08:13:25.519Z,14.95
2022-10-16T08:15:52.631Z,15.45
2022-10-16T08:18:19.747Z,13.68
2022-10-16T08:20:46.942Z,13.88
2022-10-16T08:23:14.534Z,12.65
2022-10-16T08:25:42.074Z,14.48
2022-10-16T08:28:10.483Z,12.30
2022-10-16T08:30:38.121Z,14.80
2022-10-16T08:33:05.485Z,9.70
2022-10-16T08:35:32.665Z,10.25
2022-10-16T08:37:59.814Z,8.85
2022-10-16T08:40:29.057Z,11.02
2022-10-16T08:43:11.383Z,8.93
2022-10-16T08:45:58.755Z,10.07
2022-10-16T08:48:31.288Z,13.70
2022-10-16T08:50:58.574Z,11.30
2022-10-16T08:53:46.028Z,8.35
2022-10-16T08:56:13.143Z,7.82
2022-10-16T08:58:40.304Z,10.38
2022-10-16T09:01:13.820Z,7.95
2022-10-16T09:03:50.599Z,9.07
2022-10-16T09:06:28.619Z,12.13
2022-10-16T09:08:55.712Z,10.25
2022-10-16T09:11:22.803Z,6.88
2022-10-16T09:13:53.703Z,11.55
2022-10-16T09:16:24.165Z,8.85
2022-10-16T09:18:54.347Z,7.20
2022-10-16T09:21:24.964Z,10.75
2022-10-16T09:23:52.202Z,13.02
2022-10-16T09:28:53.867Z,7.38
2022-10-16T09:31:22.095Z,9.13
2022-10-16T09:33:52.208Z,6.65
2022-10-16T09:36:19.673Z,5.30
2022-10-16T09:38:46.831Z,8.15
2022-10-16T09:41:17.006Z,7.28
2022-10-16T09:43:49.971Z,7.60
2022-10-16T09:46:23.157Z,7.97
2022-10-16T09:48:51.595Z,6.95
2022-10-16T09:51:39.050Z,7.35
2022-10-16T09:54:12.370Z,7.72
2022-10-16T09:56:43.352Z,7.95
2022-10-16T09:59:12.879Z,6.50
2022-10-16T10:01:41.601Z,7.80
2022-10-16T10:04:09.168Z,9.05
2022-10-16T10:06:40.732Z,7.13
2022-10-16T10:09:21.950Z,9.43
2022-10-16T10:11:56.590Z,8.48
2022-10-16T10:14:23.897Z,7.40
2022-10-16T10:16:51.927Z,10.15
2022-10-16T10:19:20.361Z,7.30
2022-10-16T10:21:47.705Z,9.10
2022-10-16T10:24:15.778Z,7.28
2022-10-16T10:26:51.809Z,7.35
2022-10-16T10:29:43.058Z,6.00
2022-10-16T10:32:13.270Z,10.38
2022-10-16T10:34:43.127Z,7.93
2022-10-16T10:37:28.523Z,8.52
2022-10-16T10:40:02.584Z,7.05
2022-10-16T10:42:48.762Z,7.05
2022-10-16T10:45:39.206Z,6.13
2022-10-16T10:48:12.439Z,9.93
2022-10-16T10:50:56.626Z,9.05
2022-10-16T10:53:33.976Z,5.00
2022-10-16T10:56:07.105Z,6.68
2022-10-16T10:58:44.133Z,6.47
2022-10-16T11:01:15.645Z,5.43
2022-10-16T11:04:01.891Z,5.82
2022-10-16T11:09:46.829Z,7.63
2022-10-16T11:12:20.125Z,5.40
2022-10-16T11:15:03.086Z,5.93
2022-10-16T11:17:56.692Z,13.40
2022-10-16T11:20:28.429Z,6.35
2022-10-16T11:23:01.879Z,14.45
2022-10-16T11:25:30.227Z,15.40
2022-10-16T11:28:16.141Z,14.50
2022-10-16T11:30:43.378Z,12.13
2022-10-16T11:33:22.047Z,10.95
2022-10-16T11:35:49.288Z,11.23
2022-10-16T11:38:19.931Z,14.75
2022-10-16T11:40:50.081Z,9.60
2022-10-16T11:43:22.354Z,7.53
2022-10-16T11:46:00.898Z,7.30
2022-10-16T11:48:32.025Z,7.78
2022-10-16T11:51:05.238Z,9.82
2022-10-16T11:53:52.791Z,8.35
2022-10-16T11:56:20.965Z,9.80
2022-10-16T11:58:48.052Z,8.65
2022-10-16T12:01:33.477Z,8.82
2022-10-16T12:04:19.006Z,10.75
2022-10-16T12:06:49.548Z,9.30
2022-10-16T12:09:22.924Z,9.43
2022-10-16T12:11:50.429Z,12.63
2022-10-16T12:14:17.523Z,8.57
2022-10-16T12:16:53.949Z,8.27
2022-10-16T12:19:22.102Z,7.80
2022-10-16T12:21:49.790Z,8.35
2022-10-16T12:24:43.017Z,9.80
2022-10-16T12:27:28.927Z,11.15
2022-10-16T12:30:01.475Z,8.43
2022-10-16T12:32:48.038Z,7.22
2022-10-16T12:35:20.975Z,11.50
2022-10-16T12:37:48.225Z,6.82
2022-10-16T12:40:15.416Z,9.50
2022-10-16T12:42:42.847Z,8.40
2022-10-16T12:45:28.569Z,7.22
2022-10-16T12:47:56.419Z,6.78
2022-10-16T12:50:28.412Z,8.68
2022-10-16T12:52:55.766Z,6.07
2022-10-16T12:55:24.066Z,10.32
2022-10-16T12:57:51.476Z,8.15
2022-10-16T13:00:23.453Z,8.35
2022-10-16T13:03:11.691Z,8.02
2022-10-16T13:05:57.807Z,7.82
2022-10-16T13:08:51.608Z,10.60
2022-10-16T13:11:24.723Z,11.93
2022-10-16T13:14:00.941Z,9.02
2022-10-16T13:16:46.856Z,8.90
2022-10-16T13:19:26.386Z,9.15
2022-10-16T13:22:19.741Z,9.98
2022-10-16T13:25:07.933Z,7.72
2022-10-16T13:27:43.386Z,9.93
2022-10-16T13:30:21.331Z,10.90
2022-10-16T13:32:50.235Z,11.40
2022-10-16T13:35:27.813Z,9.77
2022-10-16T13:38:13.690Z,9.75
2022-10-16T13:41:10.052Z,11.98
2022-10-16T13:43:39.134Z,10.02
2022-10-16T13:46:07.857Z,8.10
2022-10-16T13:48:35.563Z,8.40
2022-10-16T13:51:16.736Z,7.50
2022-10-16T13:53:44.411Z,7.93
2022-10-16T13:56:13.445Z,10.07
2022-10-16T13:58:40.984Z,9.57
2022-10-16T14:01:17.838Z,8.98
2022-10-16T14:03:45.534Z,9.85
2022-10-16T14:06:14.772Z,10.18
2022-10-16T14:08:44.369Z,9.90
2022-10-16T14:11:11.800Z,9.70
2022-10-16T14:13:40.117Z,11.07
2022-10-16T14:16:11.486Z,9.52
2022-10-16T14:18:39.859Z,9.43
2022-10-16T14:21:15.571Z,11.05
2022-10-16T14:23:43.090Z,10.82
2022-10-16T14:26:10.176Z,9.20
2022-10-16T14:28:37.895Z,11.77
2022-10-16T14:31:23.761Z,11.65
2022-10-16T14:33:50.943Z,8.85
2022-10-16T14:36:19.600Z,12.18
2022-10-16T14:39:02.427Z,10.55
2022-10-16T14:41:30.493Z,11.00
2022-10-16T14:44:05.405Z,9.32
2022-10-16T14:46:39.477Z,9.48
2022-10-16T14:49:06.634Z,12.05
2022-10-16T14:51:33.809Z,11.85
2022-10-16T14:54:01.139Z,9.75
2022-10-16T14:56:33.141Z,11.70
2022-10-16T14:59:00.661Z,12.23
2022-10-16T15:01:27.777Z,12.38
2022-10-16T15:03:56.150Z,10.38
2022-10-16T15:06:23.353Z,8.15
2022-10-16T15:08:50.511Z,14.95
2022-10-16T15:11:19.048Z,14.98
2022-10-16T15:13:46.618Z,11.57
2022-10-16T15:16:15.026Z,16.73
2022-10-16T15:18:42.340Z,14.93
2022-10-16T15:21:09.908Z,13.15
2022-10-16T15:23:37.076Z,20.05
2022-10-16T15:26:04.307Z,13.68
2022-10-16T15:28:31.531Z,13.80
2022-10-16T15:30:58.871Z,19.80
2022-10-16T15:33:29.275Z,17.00
2022-10-16T15:35:56.663Z,12.57
2022-10-16T15:38:24.375Z,8.68
2022-10-16T15:40:51.953Z,8.90
2022-10-16T15:43:19.814Z,7.65
2022-10-16T15:46:00.008Z,8.40
2022-10-16T15:48:27.190Z,7.53
2022-10-16T15:50:54.338Z,10.48
2022-10-16T15:53:21.534Z,9.23
2022-10-16T15:55:48.683Z,10.85
2022-10-16T15:58:15.954Z,10.77
2022-10-16T16:00:43.347Z,8.77
2022-10-16T16:03:10.778Z,10.73
2022-10-16T16:05:45.524Z,9.52
2022-10-16T16:08:13.788Z,10.77
2022-10-16T16:10:40.954Z,14.90
2022-10-16T16:13:08.110Z,17.98
2022-10-16T16:15:35.422Z,14.30
2022-10-16T16:20:36.565Z,18.85
2022-10-16T16:23:03.702Z,20.17
2022-10-16T16:25:30.863Z,20.95
2022-10-16T16:27:58.058Z,21.00
2022-10-16T16:30:28.214Z,22.38
2022-10-16T16:32:55.614Z,25.30
2022-10-16T16:35:23.147Z,26.83
2022-10-16T16:37:50.315Z,25.35
2022-10-16T16:40:17.422Z,26.10
2022-10-16T16:42:44.749Z,27.10
2022-10-16T16:45:11.913Z,29.27
2022-10-16T16:47:39.741Z,25.63
2022-10-16T16:50:08.073Z,28.38
2022-10-16T16:52:36.341Z,26.58
2022-10-16T16:55:03.586Z,24.90
2022-10-16T16:57:30.907Z,27.50
2022-10-16T16:59:58.209Z,29.15
2022-10-16T17:02:26.612Z,24.85
2022-10-16T17:04:54.411Z,21.75
2022-10-16T17:07:24.060Z,26.42
2022-10-16T17:09:51.544Z,22.50
2022-10-16T17:12:18.717Z,18.92
2022-10-16T17:14:45.881Z,19.60
2022-10-16T17:17:13.006Z,20.40
2022-10-16T17:19:40.282Z,17.70
2022-10-16T17:22:07.464Z,19.92
2022-10-16T17:24:34.643Z,23.00
2022-10-16T17:27:01.974Z,20.55
2022-10-16T17:29:29.114Z,14.90
2022-10-16T17:31:59.261Z,12.80
2022-10-16T17:34:26.623Z,15.50
2022-10-16T17:36:53.762Z,16.60
2022-10-16T17:39:20.946Z,13.52
2022-10-16T17:41:48.864Z,12.98
2022-10-16T17:44:20.138Z,14.48
2022-10-16T17:49:15.074Z,14.18
2022-10-16T17:51:42.307Z,12.93
2022-10-16T17:54:10.565Z,13.13
2022-10-16T17:56:38.060Z,15.30
2022-10-16T17:59:05.330Z,12.45
2022-10-16T18:01:33.938Z,15.82
2022-10-16T18:04:02.575Z,17.13
2022-10-16T18:06:29.981Z,14.73
2022-10-16T18:08:58.205Z,14.23
2022-10-16T18:11:25.533Z,14.10
2022-10-16T18:13:53.654Z,13.80
2022-10-16T18:16:20.976Z,15.82
2022-10-16T18:18:48.612Z,14.07
2022-10-16T18:21:16.904Z,12.07
2022-10-16T18:23:49.060Z,13.85
2022-10-16T18:26:19.597Z,16.77
2022-10-16T18:28:46.843Z,13.90
2022-10-16T18:31:15.378Z,12.55
2022-10-16T18:33:48.151Z,13.98
2022-10-16T18:36:15.766Z,14.95
2022-10-16T18:38:42.936Z,14.68
2022-10-16T18:41:10.532Z,13.57
2022-10-16T18:43:38.865Z,14.73
2022-10-16T18:46:08.058Z,13.80
2022-10-16T18:48:35.365Z,16.00
2022-10-16T18:51:11.793Z,13.52
2022-10-16T18:53:39.914Z,15.65
2022-10-16T18:56:07.221Z,15.10
2022-10-16T18:58:35.449Z,18.23
2022-10-16T19:01:06.436Z,14.60
2022-10-16T19:03:34.083Z,17.35
2022-10-16T19:06:02.099Z,14.35
2022-10-16T19:08:32.264Z,15.60
2022-10-16T19:11:09.831Z,16.45
2022-10-16T19:13:37.469Z,16.70
2022-10-16T19:16:19.398Z,16.00
2022-10-16T19:18:47.453Z,13.45
2022-10-16T19:21:15.782Z,13.77
2022-10-16T19:23:43.193Z,15.52
2022-10-16T19:26:12.205Z,15.98
2022-10-16T19:28:39.929Z,14.10
2022-10-16T19:31:08.707Z,14.88
2022-10-16T19:33:35.908Z,15.23
2022-10-16T19:36:08.915Z,15.93
2022-10-16T19:38:36.168Z,15.52
2022-10-16T19:41:21.897Z,14.55
2022-10-16T19:43:49.076Z,17.27
2022-10-16T19:46:17.824Z,15.00
2022-10-16T19:48:45.289Z,16.83
2022-10-16T19:51:13.293Z,15.43
2022-10-16T19:53:40.402Z,16.98
2022-10-16T19:56:17.886Z,17.70
2022-10-16T19:58:45.414Z,14.65
2022-10-16T20:01:13.621Z,14.15
2022-10-16T20:03:40.889Z,16.02
2022-10-16T20:06:08.807Z,14.13
2022-10-16T20:08:36.949Z,14.65
2022-10-16T20:11:05.074Z,18.42
2022-10-16T20:13:32.616Z,16.30
2022-10-16T20:15:59.894Z,17.27
2022-10-16T20:18:27.143Z,14.73
2022-10-16T20:20:55.108Z,15.52
2022-10-16T20:23:23.924Z,15.98
2022-10-16T20:25:52.707Z,16.50
2022-10-16T20:28:21.511Z,13.93
2022-10-16T20:30:50.095Z,17.15
2022-10-16T20:33:18.049Z,16.00
2022-10-16T20:35:46.361Z,12.95
2022-10-16T20:38:14.506Z,14.07
2022-10-16T20:40:43.115Z,15.85
2022-10-16T20:43:14.449Z,14.27
2022-10-16T20:45:41.971Z,15.65
2022-10-16T20:48:11.177Z,13.52
2022-10-16T20:50:38.928Z,13.63
2022-10-16T20:53:06.065Z,13.15
2022-10-16T20:55:35.470Z,14.25
2022-10-16T20:58:02.697Z,14.98
2022-10-16T21:00:29.818Z,14.18
2022-10-16T21:02:57.484Z,12.70
2022-10-16T21:05:25.096Z,15.18
2022-10-16T21:07:52.197Z,16.02
2022-10-16T21:10:19.976Z,12.18
2022-10-16T21:12:47.085Z,17.00
2022-10-16T21:15:15.396Z,13.30
2022-10-16T21:17:43.223Z,16.67
2022-10-16T21:20:10.563Z,16.30
2022-10-16T21:22:37.761Z,13.68
2022-10-16T21:25:05.586Z,15.55
2022-10-16T21:27:37.578Z,15.00
2022-10-16T21:30:05.730Z,15.05
2022-10-16T21:35:19.842Z,14.63
2022-10-16T21:37:50.374Z,13.15
2022-10-16T21:40:17.514Z,13.65
2022-10-16T21:42:44.793Z,18.60
2022-10-16T21:45:11.965Z,15.55
2022-10-16T21:47:39.086Z,12.18
2022-10-16T21:50:06.494Z,13.52
2022-10-16T21:52:33.624Z,13.35
2022-10-16T21:55:00.730Z,16.10
2022-10-16T21:57:28.276Z,16.08
2022-10-16T21:59:55.550Z,15.57
2022-10-16T22:02:22.688Z,13.85
2022-10-16T22:04:49.960Z,19.83
2022-10-16T22:07:17.176Z,13.95
2022-10-16T22:09:44.364Z,16.35
2022-10-16T22:12:11.555Z,17.02
2022-10-16T22:14:40.801Z,15.27
2022-10-16T22:17:10.926Z,14.23
2022-10-16T22:19:38.244Z,14.32
2022-10-16T22:22:05.393Z,15.15
2022-10-16T22:27:05.231Z,15.75
2022-10-16T22:29:32.340Z,14.18
2022-10-16T22:31:59.520Z,13.88
2022-10-16T22:34:28.130Z,14.82
2022-10-16T22:36:55.237Z,13.60
2022-10-16T22:39:22.359Z,18.00
2022-10-16T22:41:49.649Z,16.27
2022-10-16T22:44:16.760Z,15.65
2022-10-16T22:46:43.949Z,13.55
2022-10-16T22:49:11.221Z,15.75
2022-10-16T22:51:38.405Z,18.08
2022-10-16T22:54:05.641Z,13.98
2022-10-16T22:56:32.794Z,15.38
2022-10-16T22:58:59.896Z,14.93
2022-10-16T23:01:28.877Z,14.57
2022-10-16T23:03:56.265Z,13.80
2022-10-16T23:06:23.553Z,14.40
2022-10-16T23:08:54.196Z,18.85
2022-10-16T23:11:21.542Z,14.90
2022-10-16T23:13:49.053Z,17.90
2022-10-16T23:16:17.085Z,13.02
2022-10-16T23:18:44.976Z,14.77
2022-10-16T23:21:13.588Z,17.88
2022-10-16T23:23:41.122Z,21.88
2022-10-16T23:26:15.677Z,15.60
2022-10-16T23:28:43.286Z,12.93
2022-10-16T23:31:11.082Z,18.90
2022-10-16T23:33:38.734Z,14.25
2022-10-16T23:36:06.880Z,14.85
2022-10-16T23:38:34.016Z,16.45
2022-10-16T23:41:01.293Z,14.90
2022-10-16T23:43:28.416Z,15.32
2022-10-16T23:45:55.569Z,14.07
2022-10-16T23:48:22.752Z,17.10
2022-10-16T23:50:49.865Z,15.25
2022-10-16T23:53:17.048Z,15.00
2022-10-16T23:55:44.279Z,15.93
2022-10-16T23:58:11.401Z,18.30
